createdAt,value
2019-01-24T00:02:00.610Z,20.90
2019-01-24T00:04:27.020Z,20.88
2019-01-24T00:06:53.351Z,20.89
2019-01-24T00:09:19.683Z,20.87
2019-01-24T00:11:46.014Z,20.87
2019-01-24T00:14:12.499Z,20.83
2019-01-24T00:16:38.887Z,20.84
2019-01-24T00:19:05.221Z,20.85
2019-01-24T00:21:31.575Z,20.83
2019-01-24T00:23:57.922Z,20.86
2019-01-24T00:26:24.317Z,20.83
2019-01-24T00:28:50.655Z,20.85
2019-01-24T00:31:17.030Z,20.78
2019-01-24T00:33:43.415Z,20.78
2019-01-24T00:36:09.784Z,20.77
2019-01-24T00:38:36.115Z,20.78
2019-01-24T00:41:02.489Z,20.80
2019-01-24T00:43:28.859Z,20.80
2019-01-24T00:45:55.216Z,20.79
2019-01-24T00:48:21.531Z,20.75
2019-01-24T00:50:47.863Z,20.75
2019-01-24T00:53:14.205Z,20.73
2019-01-24T00:55:40.595Z,20.75
2019-01-24T00:58:06.980Z,20.76
2019-01-24T01:00:33.355Z,20.77
2019-01-24T01:02:59.758Z,20.73
2019-01-24T01:05:26.108Z,20.71
2019-01-24T01:07:52.483Z,20.69
2019-01-24T01:10:18.832Z,20.66
2019-01-24T01:12:45.332Z,20.62
2019-01-24T01:15:11.703Z,20.57
2019-01-24T01:17:38.033Z,20.57
2019-01-24T01:20:04.371Z,20.60
2019-01-24T01:22:30.723Z,20.64
2019-01-24T01:24:57.064Z,20.60
2019-01-24T01:27:23.497Z,20.63
2019-01-24T01:29:49.823Z,20.61
2019-01-24T01:32:16.151Z,20.63
2019-01-24T01:34:42.530Z,20.62
2019-01-24T01:37:08.900Z,20.63
2019-01-24T01:39:35.241Z,20.63
2019-01-24T01:42:01.581Z,20.63
2019-01-24T01:44:27.995Z,20.63
2019-01-24T01:46:54.426Z,20.64
2019-01-24T01:49:20.835Z,20.65
2019-01-24T01:51:47.226Z,20.62
2019-01-24T01:54:13.559Z,20.68
2019-01-24T01:56:40.077Z,20.68
2019-01-24T01:59:06.478Z,20.68
2019-01-24T02:01:32.832Z,20.63
2019-01-24T02:03:59.259Z,20.69
2019-01-24T02:06:25.610Z,20.62
2019-01-24T02:08:51.990Z,20.63
2019-01-24T02:11:18.363Z,20.63
2019-01-24T02:13:44.856Z,20.64
2019-01-24T02:16:11.246Z,20.64
2019-01-24T02:18:37.536Z,20.64
2019-01-24T02:21:03.885Z,20.62
2019-01-24T02:23:30.257Z,20.60
2019-01-24T02:25:56.596Z,20.62
2019-01-24T02:28:22.924Z,20.64
2019-01-24T02:30:49.265Z,20.70
2019-01-24T02:33:15.662Z,20.66
2019-01-24T02:35:42.002Z,20.66
2019-01-24T02:38:08.372Z,20.66
2019-01-24T02:40:34.714Z,20.65
2019-01-24T02:43:01.044Z,20.65
2019-01-24T02:45:27.384Z,20.65
2019-01-24T02:47:53.774Z,20.70
2019-01-24T02:50:20.108Z,20.68
2019-01-24T02:52:46.488Z,20.70
2019-01-24T02:55:12.818Z,20.66
2019-01-24T02:57:39.149Z,20.71
2019-01-24T03:00:05.481Z,20.64
2019-01-24T03:02:31.809Z,20.62
2019-01-24T03:04:58.188Z,20.69
2019-01-24T03:07:24.554Z,20.64
2019-01-24T03:09:50.895Z,20.65
2019-01-24T03:12:17.318Z,20.62
2019-01-24T03:14:43.670Z,20.66
2019-01-24T03:17:09.995Z,20.62
2019-01-24T03:19:36.323Z,20.66
2019-01-24T03:22:02.733Z,20.62
2019-01-24T03:24:29.086Z,20.61
2019-01-24T03:26:55.430Z,20.65
2019-01-24T03:29:21.751Z,20.63
2019-01-24T03:31:48.148Z,20.64
2019-01-24T03:34:14.484Z,20.62
2019-01-24T03:36:40.844Z,20.62
2019-01-24T03:39:07.173Z,20.60
2019-01-24T03:41:33.556Z,20.56
2019-01-24T03:43:59.961Z,20.63
2019-01-24T03:46:26.388Z,20.63
2019-01-24T03:48:52.728Z,20.64
2019-01-24T03:51:19.057Z,20.65
2019-01-24T03:53:45.438Z,20.64
2019-01-24T03:56:11.760Z,20.69
2019-01-24T03:58:38.097Z,20.72
2019-01-24T04:01:04.432Z,20.77
2019-01-24T04:03:30.752Z,20.77
2019-01-24T04:05:57.269Z,20.86
2019-01-24T04:08:23.613Z,20.87
2019-01-24T04:10:49.980Z,20.86
2019-01-24T04:13:16.347Z,20.87
2019-01-24T04:15:43.916Z,20.92
2019-01-24T04:18:09.104Z,20.96
2019-01-24T04:20:35.434Z,20.96
2019-01-24T04:23:01.763Z,21.04
2019-01-24T04:25:28.085Z,21.04
2019-01-24T04:27:54.455Z,21.06
2019-01-24T04:30:20.792Z,21.04
2019-01-24T04:32:47.265Z,21.06
2019-01-24T04:35:19.686Z,21.08
2019-01-24T04:37:40.038Z,21.06
2019-01-24T04:40:06.364Z,21.09
2019-01-24T04:42:32.692Z,21.10
2019-01-24T04:44:59.048Z,21.17
2019-01-24T04:47:25.372Z,21.18
2019-01-24T04:49:51.708Z,21.16
2019-01-24T04:52:18.044Z,21.18
2019-01-24T04:54:44.373Z,21.22
2019-01-24T04:57:10.699Z,21.25
2019-01-24T04:59:37.068Z,21.27
2019-01-24T05:02:03.407Z,21.27
2019-01-24T05:04:29.779Z,21.23
2019-01-24T05:06:56.112Z,21.30
2019-01-24T05:09:22.534Z,21.31
2019-01-24T05:11:48.913Z,21.29
2019-01-24T05:14:15.244Z,21.33
2019-01-24T05:16:41.634Z,21.37
2019-01-24T05:19:07.987Z,21.35
2019-01-24T05:21:34.339Z,21.33
2019-01-24T05:24:00.692Z,21.35
2019-01-24T05:26:27.076Z,21.44
2019-01-24T05:28:53.458Z,21.36
2019-01-24T05:31:19.794Z,21.38
2019-01-24T05:33:46.127Z,21.38
2019-01-24T05:36:12.482Z,21.36
2019-01-24T05:38:38.876Z,21.39
2019-01-24T05:41:05.270Z,21.40
2019-01-24T05:43:31.602Z,21.44
2019-01-24T05:45:57.981Z,21.44
2019-01-24T05:48:24.396Z,21.39
2019-01-24T05:50:50.690Z,21.46
2019-01-24T05:53:17.077Z,21.44
2019-01-24T05:55:43.429Z,21.47
2019-01-24T05:58:09.758Z,21.46
2019-01-24T06:00:36.130Z,21.49
2019-01-24T06:03:02.493Z,21.48
2019-01-24T06:05:28.974Z,21.47
2019-01-24T06:07:55.342Z,21.51
2019-01-24T06:10:21.676Z,21.50
2019-01-24T06:12:48.021Z,21.58
2019-01-24T06:15:14.455Z,21.58
2019-01-24T06:17:40.796Z,21.65
2019-01-24T06:20:07.233Z,21.60
2019-01-24T06:22:33.529Z,21.59
2019-01-24T06:24:59.814Z,21.65
2019-01-24T06:27:26.154Z,21.63
2019-01-24T06:29:52.494Z,21.67
2019-01-24T06:32:18.875Z,21.69
2019-01-24T06:34:45.163Z,21.74
2019-01-24T06:37:11.560Z,21.69
2019-01-24T06:39:37.900Z,21.75
2019-01-24T06:42:04.294Z,21.67
2019-01-24T06:44:30.631Z,21.79
2019-01-24T06:46:56.978Z,21.77
2019-01-24T06:49:23.314Z,21.76
2019-01-24T06:51:49.652Z,21.81
2019-01-24T06:54:16.077Z,21.87
2019-01-24T06:56:42.381Z,21.84
2019-01-24T06:59:08.963Z,21.90
2019-01-24T07:01:35.335Z,21.99
2019-01-24T07:04:01.725Z,22.06
2019-01-24T07:06:28.098Z,21.99
2019-01-24T07:08:54.430Z,21.96
2019-01-24T07:11:20.782Z,22.02
2019-01-24T07:13:47.150Z,22.03
2019-01-24T07:16:13.475Z,22.09
2019-01-24T07:18:39.821Z,22.06
2019-01-24T07:21:06.236Z,22.04
2019-01-24T07:23:32.568Z,22.12
2019-01-24T07:25:59.126Z,22.08
2019-01-24T07:28:25.640Z,22.24
2019-01-24T07:30:52.072Z,22.11
2019-01-24T07:33:18.620Z,22.19
2019-01-24T07:35:45.146Z,22.21
2019-01-24T07:38:11.590Z,22.23
2019-01-24T07:40:38.241Z,22.33
2019-01-24T07:43:05.189Z,22.26
2019-01-24T07:45:31.577Z,22.49
2019-01-24T07:47:58.126Z,22.46
2019-01-24T07:50:26.768Z,22.54
2019-01-24T07:52:53.350Z,22.51
2019-01-24T07:55:19.878Z,22.44
2019-01-24T07:57:46.301Z,22.51
2019-01-24T08:00:12.648Z,22.46
2019-01-24T08:02:38.979Z,22.39
2019-01-24T08:05:05.350Z,22.38
2019-01-24T08:07:31.741Z,22.41
2019-01-24T08:09:59.065Z,22.34
2019-01-24T08:12:24.424Z,22.46
2019-01-24T08:14:50.808Z,22.50
2019-01-24T08:17:17.166Z,22.46
2019-01-24T08:19:43.508Z,22.52
2019-01-24T08:22:09.870Z,22.44
2019-01-24T08:24:36.202Z,22.62
2019-01-24T08:27:02.671Z,22.49
2019-01-24T08:29:29.253Z,22.44
2019-01-24T08:31:55.568Z,22.44
2019-01-24T08:34:21.963Z,22.43
2019-01-24T08:36:48.266Z,22.49
2019-01-24T08:39:14.602Z,22.54
2019-01-24T08:41:41.067Z,22.67
2019-01-24T08:44:07.633Z,22.60
2019-01-24T08:46:34.153Z,22.62
2019-01-24T08:49:01.065Z,22.58
2019-01-24T08:51:27.537Z,22.66
2019-01-24T08:53:54.219Z,22.64
2019-01-24T08:56:20.682Z,22.60
2019-01-24T08:58:47.207Z,22.68
2019-01-24T09:01:13.576Z,22.58
2019-01-24T09:03:40.099Z,22.69
2019-01-24T09:06:06.642Z,22.62
2019-01-24T09:08:35.422Z,22.67
2019-01-24T09:11:01.987Z,22.67
2019-01-24T09:13:28.652Z,22.67
2019-01-24T09:15:56.170Z,22.67
2019-01-24T09:18:22.583Z,22.69
2019-01-24T09:20:48.983Z,22.79
2019-01-24T09:23:15.333Z,22.65
2019-01-24T09:25:41.684Z,22.70
2019-01-24T09:28:14.598Z,22.66
2019-01-24T09:30:34.450Z,22.63
2019-01-24T09:33:01.261Z,22.66
2019-01-24T09:35:27.623Z,22.66
2019-01-24T09:37:53.959Z,22.64
2019-01-24T09:40:20.308Z,22.66
2019-01-24T09:42:46.642Z,22.66
2019-01-24T09:45:13.011Z,22.68
2019-01-24T09:47:39.347Z,22.67
2019-01-24T09:50:05.676Z,22.55
2019-01-24T09:52:32.121Z,22.68
2019-01-24T09:54:58.467Z,22.69
2019-01-24T09:57:24.782Z,22.70
2019-01-24T09:59:51.109Z,22.73
2019-01-24T10:02:17.453Z,22.71
2019-01-24T10:04:43.785Z,22.73
2019-01-24T10:07:11.520Z,22.83
2019-01-24T10:09:37.894Z,22.75
2019-01-24T10:12:04.466Z,22.80
2019-01-24T10:14:32.738Z,22.82
2019-01-24T10:16:59.112Z,22.82
2019-01-24T10:19:25.442Z,22.83
2019-01-24T10:21:51.829Z,22.76
2019-01-24T10:24:18.320Z,22.87
2019-01-24T10:26:44.717Z,22.83
2019-01-24T10:29:11.054Z,22.86
2019-01-24T10:31:37.402Z,22.84
2019-01-24T10:34:05.194Z,22.88
2019-01-24T10:36:30.353Z,22.97
2019-01-24T10:38:56.855Z,22.94
2019-01-24T10:41:23.158Z,22.92
2019-01-24T10:43:49.498Z,22.97
2019-01-24T10:46:15.854Z,22.94
2019-01-24T10:48:42.192Z,23.01
2019-01-24T10:51:08.539Z,23.03
2019-01-24T10:53:34.869Z,23.01
2019-01-24T10:56:01.262Z,23.07
2019-01-24T10:58:27.656Z,23.09
2019-01-24T11:00:54.083Z,23.05
2019-01-24T11:03:20.420Z,23.03
2019-01-24T11:05:46.961Z,23.07
2019-01-24T11:08:13.305Z,23.08
2019-01-24T11:10:39.713Z,23.11
2019-01-24T11:13:06.090Z,23.02
2019-01-24T11:15:32.635Z,23.12
2019-01-24T11:17:59.157Z,23.12
2019-01-24T11:20:25.693Z,23.15
2019-01-24T11:22:52.234Z,23.21
2019-01-24T11:25:18.590Z,23.12
2019-01-24T11:27:45.013Z,23.18
2019-01-24T11:30:11.354Z,23.15
2019-01-24T11:32:37.861Z,23.12
2019-01-24T11:35:04.199Z,23.20
2019-01-24T11:37:30.549Z,23.20
2019-01-24T11:39:56.905Z,23.17
2019-01-24T11:42:23.285Z,23.21
2019-01-24T11:44:49.800Z,23.21
2019-01-24T11:47:17.370Z,23.22
2019-01-24T11:49:44.830Z,23.17
2019-01-24T11:52:11.383Z,23.22
2019-01-24T11:54:37.692Z,23.20
2019-01-24T11:57:04.031Z,23.09
2019-01-24T11:59:30.387Z,23.17
2019-01-24T12:01:56.771Z,23.25
2019-01-24T12:04:24.329Z,23.22
2019-01-24T12:06:50.856Z,23.27
2019-01-24T12:09:17.277Z,23.30
2019-01-24T12:11:43.628Z,23.29
2019-01-24T12:14:12.663Z,23.39
2019-01-24T12:16:39.022Z,23.32
2019-01-24T12:19:05.473Z,23.30
2019-01-24T12:21:31.999Z,23.31
2019-01-24T12:23:58.363Z,23.40
2019-01-24T12:26:24.868Z,23.35
2019-01-24T12:28:51.245Z,23.38
2019-01-24T12:31:17.596Z,23.31
2019-01-24T12:33:44.071Z,23.32
2019-01-24T12:36:12.042Z,23.36
2019-01-24T12:38:38.579Z,23.36
2019-01-24T12:41:05.101Z,23.39
2019-01-24T12:43:31.493Z,23.43
2019-01-24T12:45:57.960Z,23.40
2019-01-24T12:48:24.298Z,23.40
2019-01-24T12:50:50.674Z,23.42
2019-01-24T12:53:17.001Z,23.46
2019-01-24T12:55:43.348Z,23.45
2019-01-24T12:58:09.684Z,23.44
2019-01-24T13:00:36.032Z,23.42
2019-01-24T13:03:02.390Z,23.38
2019-01-24T13:05:28.783Z,23.45
2019-01-24T13:07:55.118Z,23.45
2019-01-24T13:10:21.604Z,23.51
2019-01-24T13:12:47.960Z,23.53
2019-01-24T13:15:14.498Z,23.52
2019-01-24T13:17:40.931Z,23.41
2019-01-24T13:20:07.268Z,23.42
2019-01-24T13:22:33.612Z,23.47
2019-01-24T13:25:00.102Z,23.50
2019-01-24T13:27:26.506Z,23.51
2019-01-24T13:29:52.870Z,23.53
2019-01-24T13:32:19.227Z,23.47
2019-01-24T13:34:45.568Z,23.50
2019-01-24T13:37:11.902Z,23.60
2019-01-24T13:39:38.288Z,23.55
2019-01-24T13:42:04.672Z,23.54
2019-01-24T13:44:31.051Z,23.42
2019-01-24T13:46:57.471Z,23.46
2019-01-24T13:49:23.812Z,23.51
2019-01-24T13:51:50.203Z,23.49
2019-01-24T13:54:16.588Z,23.47
2019-01-24T13:56:42.929Z,23.44
2019-01-24T13:59:09.395Z,23.50
2019-01-24T14:01:35.865Z,23.43
2019-01-24T14:04:02.218Z,23.55
2019-01-24T14:06:28.612Z,23.44
2019-01-24T14:08:54.920Z,23.56
2019-01-24T14:11:21.263Z,23.37
2019-01-24T14:13:47.621Z,23.53
2019-01-24T14:16:14.041Z,23.59
2019-01-24T14:18:40.371Z,23.51
2019-01-24T14:21:06.671Z,23.50
2019-01-24T14:23:33.082Z,23.46
2019-01-24T14:25:59.559Z,23.43
2019-01-24T14:28:25.901Z,23.47
2019-01-24T14:30:52.259Z,23.44
2019-01-24T14:33:18.667Z,23.39
2019-01-24T14:35:45.010Z,23.42
2019-01-24T14:38:11.342Z,23.51
2019-01-24T14:40:37.684Z,23.53
2019-01-24T14:43:04.030Z,23.44
2019-01-24T14:45:30.409Z,23.50
2019-01-24T14:47:57.075Z,23.56
2019-01-24T14:50:23.350Z,23.43
2019-01-24T14:52:49.829Z,23.45
2019-01-24T14:55:16.162Z,23.47
2019-01-24T14:57:42.496Z,23.47
2019-01-24T15:00:08.857Z,23.46
2019-01-24T15:02:35.207Z,23.50
2019-01-24T15:05:01.560Z,23.43
2019-01-24T15:07:28.043Z,23.44
2019-01-24T15:09:54.400Z,23.42
2019-01-24T15:12:20.733Z,23.30
2019-01-24T15:14:47.214Z,23.40
2019-01-24T15:17:13.546Z,23.41
2019-01-24T15:19:39.903Z,23.44
2019-01-24T15:22:06.297Z,23.39
2019-01-24T15:24:32.664Z,23.43
2019-01-24T15:26:59.025Z,23.47
2019-01-24T15:29:25.353Z,23.44
2019-01-24T15:31:51.727Z,23.39
2019-01-24T15:34:18.089Z,23.37
2019-01-24T15:36:44.452Z,23.40
2019-01-24T15:39:10.927Z,23.41
2019-01-24T15:41:37.287Z,23.40
2019-01-24T15:44:03.701Z,23.36
2019-01-24T15:46:30.053Z,23.36
2019-01-24T15:48:56.470Z,23.42
2019-01-24T15:51:22.894Z,23.41
2019-01-24T15:53:49.249Z,23.31
2019-01-24T15:56:15.628Z,23.30
2019-01-24T15:58:42.022Z,23.35
2019-01-24T16:01:08.346Z,23.32
2019-01-24T16:03:34.757Z,23.32
2019-01-24T16:06:01.098Z,23.27
2019-01-24T16:08:27.486Z,23.28
2019-01-24T16:10:53.940Z,23.22
2019-01-24T16:13:20.301Z,23.27
2019-01-24T16:15:46.786Z,23.30
2019-01-24T16:18:13.708Z,23.26
2019-01-24T16:20:39.548Z,23.23
2019-01-24T16:23:05.881Z,23.26
2019-01-24T16:25:32.259Z,23.21
2019-01-24T16:27:58.605Z,23.23
2019-01-24T16:30:24.944Z,23.14
2019-01-24T16:32:51.279Z,23.16
2019-01-24T16:35:17.661Z,23.10
2019-01-24T16:37:44.059Z,23.13
2019-01-24T16:40:10.432Z,23.14
2019-01-24T16:42:36.754Z,23.13
2019-01-24T16:45:03.084Z,23.10
2019-01-24T16:47:29.516Z,23.18
2019-01-24T16:49:55.848Z,23.11
2019-01-24T16:52:22.180Z,23.09
2019-01-24T16:54:48.539Z,23.08
2019-01-24T16:57:15.066Z,23.10
2019-01-24T16:59:41.442Z,23.02
2019-01-24T17:02:07.885Z,23.01
2019-01-24T17:04:34.261Z,23.00
2019-01-24T17:07:00.581Z,22.94
2019-01-24T17:09:26.958Z,22.87
2019-01-24T17:11:53.285Z,22.93
2019-01-24T17:14:22.439Z,22.91
2019-01-24T17:16:45.954Z,22.90
2019-01-24T17:19:12.310Z,22.86
2019-01-24T17:21:38.687Z,22.80
2019-01-24T17:24:05.033Z,22.79
2019-01-24T17:26:31.423Z,22.78
2019-01-24T17:28:57.836Z,22.78
2019-01-24T17:31:24.185Z,22.78
2019-01-24T17:33:50.540Z,22.69
2019-01-24T17:36:16.934Z,22.77
2019-01-24T17:38:43.289Z,22.72
2019-01-24T17:41:09.633Z,22.66
2019-01-24T17:43:36.054Z,22.69
2019-01-24T17:46:04.938Z,22.70
2019-01-24T17:48:31.291Z,22.65
2019-01-24T17:50:57.806Z,22.62
2019-01-24T17:53:24.137Z,22.57
2019-01-24T17:55:50.644Z,22.56
2019-01-24T17:58:17.000Z,22.60
2019-01-24T18:00:43.385Z,22.57
2019-01-24T18:03:09.750Z,22.57
2019-01-24T18:05:36.047Z,22.61
2019-01-24T18:08:02.459Z,22.58
2019-01-24T18:10:28.794Z,22.60
2019-01-24T18:12:55.133Z,22.61
2019-01-24T18:15:21.470Z,22.56
2019-01-24T18:17:47.854Z,22.54
2019-01-24T18:20:18.207Z,22.52
2019-01-24T18:22:40.615Z,22.49
2019-01-24T18:25:06.963Z,22.50
2019-01-24T18:27:33.522Z,22.56
2019-01-24T18:29:59.856Z,22.52
2019-01-24T18:32:26.217Z,22.55
2019-01-24T18:34:52.547Z,22.51
2019-01-24T18:37:18.987Z,22.53
2019-01-24T18:39:45.340Z,22.49
2019-01-24T18:42:11.852Z,22.53
2019-01-24T18:44:38.236Z,22.49
2019-01-24T18:47:04.710Z,22.51
2019-01-24T18:49:31.064Z,22.48
2019-01-24T18:51:57.401Z,22.49
2019-01-24T18:54:23.780Z,22.43
2019-01-24T18:56:50.168Z,22.43
2019-01-24T18:59:16.481Z,22.37
2019-01-24T19:01:42.896Z,22.35
2019-01-24T19:04:09.228Z,22.31
2019-01-24T19:06:35.656Z,22.26
2019-01-24T19:09:02.019Z,22.24
2019-01-24T19:11:28.392Z,22.18
2019-01-24T19:13:54.744Z,22.17
2019-01-24T19:16:21.075Z,22.10
2019-01-24T19:18:47.512Z,22.09
2019-01-24T19:21:13.855Z,22.08
2019-01-24T19:23:40.194Z,21.99
2019-01-24T19:26:07.730Z,21.97
2019-01-24T19:28:33.142Z,21.99
2019-01-24T19:30:59.543Z,21.95
2019-01-24T19:33:25.892Z,21.95
2019-01-24T19:35:52.241Z,21.91
2019-01-24T19:38:18.651Z,21.88
2019-01-24T19:40:44.984Z,21.81
2019-01-24T19:43:11.468Z,21.88
2019-01-24T19:45:37.798Z,21.85
2019-01-24T19:48:04.141Z,21.77
2019-01-24T19:50:30.515Z,21.84
2019-01-24T19:52:56.841Z,21.79
2019-01-24T19:55:23.177Z,21.73
2019-01-24T19:57:49.644Z,21.72
2019-01-24T20:00:15.938Z,21.72
2019-01-24T20:02:42.268Z,21.73
2019-01-24T20:05:08.607Z,21.76
2019-01-24T20:07:35.032Z,21.74
2019-01-24T20:10:01.596Z,21.66
2019-01-24T20:12:27.716Z,21.69
2019-01-24T20:14:54.326Z,21.68
2019-01-24T20:17:20.647Z,21.69
2019-01-24T20:19:46.986Z,21.63
2019-01-24T20:22:13.322Z,21.63
2019-01-24T20:24:39.700Z,21.61
2019-01-24T20:27:06.077Z,21.63
2019-01-24T20:29:32.426Z,21.61
2019-01-24T20:31:58.777Z,21.59
2019-01-24T20:34:25.189Z,21.58
2019-01-24T20:36:51.523Z,21.61
2019-01-24T20:39:17.862Z,21.63
2019-01-24T20:41:44.185Z,21.55
2019-01-24T20:44:10.512Z,21.57
2019-01-24T20:46:36.911Z,21.57
2019-01-24T20:49:03.300Z,21.51
2019-01-24T20:51:29.635Z,21.54
2019-01-24T20:53:56.007Z,21.52
2019-01-24T20:56:22.344Z,21.52
2019-01-24T20:58:48.706Z,21.51
2019-01-24T21:01:15.037Z,21.51
2019-01-24T21:03:41.463Z,21.51
2019-01-24T21:06:07.793Z,21.45
2019-01-24T21:08:34.133Z,21.49
2019-01-24T21:11:00.495Z,21.47
2019-01-24T21:13:26.830Z,21.47
2019-01-24T21:15:53.160Z,21.48
2019-01-24T21:18:19.662Z,21.43
2019-01-24T21:20:45.985Z,21.46
2019-01-24T21:23:12.349Z,21.44
2019-01-24T21:25:38.719Z,21.42
2019-01-24T21:28:05.000Z,21.43
2019-01-24T21:30:31.349Z,21.45
2019-01-24T21:32:57.726Z,21.45
2019-01-24T21:35:24.049Z,21.43
2019-01-24T21:37:50.425Z,21.39
2019-01-24T21:40:16.817Z,21.42
2019-01-24T21:42:43.157Z,21.38
2019-01-24T21:45:09.539Z,21.48
2019-01-24T21:47:35.871Z,21.55
2019-01-24T21:50:02.180Z,21.53
2019-01-24T21:52:28.522Z,21.54
2019-01-24T21:54:54.844Z,21.52
2019-01-24T21:57:21.245Z,21.49
2019-01-24T21:59:47.567Z,21.47
2019-01-24T22:02:13.922Z,21.42
2019-01-24T22:04:40.333Z,21.42
2019-01-24T22:07:06.631Z,21.36
2019-01-24T22:09:32.982Z,21.34
2019-01-24T22:11:59.322Z,21.32
2019-01-24T22:14:26.494Z,21.29
2019-01-24T22:16:52.101Z,21.28
2019-01-24T22:19:18.478Z,21.22
2019-01-24T22:21:44.848Z,21.17
2019-01-24T22:24:11.218Z,21.16
2019-01-24T22:26:37.547Z,21.16
2019-01-24T22:29:03.928Z,21.14
2019-01-24T22:31:30.264Z,21.11
2019-01-24T22:33:56.675Z,21.10
2019-01-24T22:36:23.024Z,21.09
2019-01-24T22:38:49.479Z,21.06
2019-01-24T22:41:15.816Z,21.05
2019-01-24T22:43:42.155Z,21.04
2019-01-24T22:46:08.557Z,21.04
2019-01-24T22:48:34.901Z,20.99
2019-01-24T22:51:01.237Z,21.03
2019-01-24T22:53:27.578Z,21.00
2019-01-24T22:55:53.948Z,20.99
2019-01-24T22:58:20.271Z,20.99
2019-01-24T23:00:46.649Z,20.95
2019-01-24T23:03:12.993Z,20.95
2019-01-24T23:05:39.346Z,20.93
2019-01-24T23:08:05.720Z,20.93
2019-01-24T23:10:32.050Z,20.96
2019-01-24T23:12:58.389Z,20.90
2019-01-24T23:15:24.732Z,20.90
2019-01-24T23:17:51.112Z,20.90
2019-01-24T23:20:17.486Z,20.90
2019-01-24T23:22:43.837Z,20.92
2019-01-24T23:25:10.167Z,20.91
2019-01-24T23:27:36.512Z,20.90
2019-01-24T23:30:02.845Z,20.88
2019-01-24T23:32:29.232Z,20.89
2019-01-24T23:34:55.559Z,20.87
2019-01-24T23:37:21.912Z,20.80
2019-01-24T23:39:52.404Z,20.85
2019-01-24T23:42:14.575Z,20.79
2019-01-24T23:44:40.943Z,20.80
2019-01-24T23:47:07.330Z,20.81
2019-01-24T23:49:33.666Z,20.83
2019-01-24T23:52:00.028Z,20.80
2019-01-24T23:54:26.366Z,20.77
2019-01-24T23:56:52.707Z,20.79
2019-01-24T23:59:19.051Z,20.76
